Portada
METAR-TAF:

METAR-TAF

Aeroports :

Ankeny Regional Airport

Ankeny, Iowa, Estats Units d'Amèrica

latitud: 41-41-24N, longitud: 093-33-57W, altitud: 275 m

Observació

L'informe es va fer fa 21 minuts, a les 18:35 UTC
Vent 12 kt del Sud/Sud-Est amb ràfegues de 17 kt
Temperatura 27°C
Humitat 74%
Pressió 1008 hPa
Visibilitat: 16.1 km
Núvols disperses a una alçada de 1900 ft
Núvols disperses a una alçada de 3900 ft
Cel ennuvolat a una alçada de 4900 ft

METAR: KIKV 191835Z AUTO 16012G17KT 10SM SCT019 SCT039 BKN049 27/22 A2976 RMK AO2

Hora: 13:56 (18:56 UTC)


TAF: manca

Observacions i pronòstics meteorològics de més de 4000 aeroports (METAR i TAF).

Les estacions disponibles són els punts grocs i vermells al mapa.

Posi el ratolí al punt desitjat per veure el nom de l'estació.

Feu clic per veure les observacions i els pronòstics meteorològics.

Per canviar el mapa: feu clic els botons verds amb una creu de color negre per apropar; al botó verd amb un guió per allunyar la imatge; o en les fletxes verdes per a mapes adjacents.


METAR-TAF: